OA09 weather

Madison Health Heliport
London, Ohio, United States

Public forecast

Using degrees Fahrenheit for public forecast. Weather courtesy of forecast.io.

METAR (pilot weather report)

Closest report is Madison County Airport, 2.4 nm (4.5 km) N. Retrieved 2019/05/22 14:35 UTC (0 seconds ago):

KUYF 221435Z AUTO 17007KT 10SM CLR 20/12 A3002 RMK AO2

TAF (pilot weather forecast)

Closest forecast is Rickenbacker International Airport, 24.7 nm (45.7 km) E. Retrieved 2019/05/22 12:39 UTC (2 hours ago):

TAF KLCK 221132Z 2212/2312 11007KT P6SM SCT100 BKN250 FM221600 20011G20KT P6SM BKN070 FM222000 21012G20KT P6SM VCTS BKN050CB FM222300 21009KT P6SM SCT050 FM230200 18005KT P6SM SCT050